^^
Grace C. Lehan Memorial Weather Station Historical Data
Daily Summary for July 25, 2022 Units:  Both    English   Metric
Daily Weekly Monthly Yearly
  High: Low: Average:
Temperature: 70.5 °F /  21.4 °C 48.5 °F /  9.2 °C 57.7 °F /  14.3 °C
Dew Point: 62.3 °F /  16.8 °C 46.6 °F /  8.1 °C 52.9 °F /  11.6 °C
Humidity: 95% 71% 85%
Wind Speed: 1.5mph /  2.4km/h - 0.1mph /  0.2km/h
Wind Gust: 11mph /  17.7km/h - -
Wind- - SSW
Pressure: 29.84 in /  1010.4 hPa 29.58 in /  1001.6 hPa -
Precipitation: 0.00 in /  0 mm    
 
 
Tabular Data for July 25, 2022
Time Temperature Dew Point Pressure Wind Wind Speed Wind Gust Humidity Rainfall Rate (Hourly) solar
00:04 52 °F /  11.1 °C 48.3 °F /  9.1 °C 29.84in /  1010.4hPa Calm     87% 0.00in /  0mm 0 W/m2
00:09 51.9 °F /  11.1 °C 48.1 °F /  8.9 °C 29.84in /  1010.4hPa Calm     87% 0.00in /  0mm 0 W/m2
00:14 51.7 °F /  10.9 °C 48.3 °F /  9.1 °C 29.84in /  1010.4hPa Calm     87.9% 0.00in /  0mm 0 W/m2
00:19 51.6 °F /  10.9 °C 48.2 °F /  9 °C 29.84in /  1010.4hPa Calm     88% 0.00in /  0mm 0 W/m2
00:24 51.5 °F /  10.8 °C 48 °F /  8.9 °C 29.84in /  1010.4hPa Calm     88% 0.00in /  0mm 0 W/m2
00:29 51.3 °F /  10.7 °C 47.9 °F /  8.8 °C 29.84in /  1010.4hPa Calm     88% 0.00in /  0mm 0 W/m2
00:34 51.2 °F /  10.7 °C 47.9 °F /  8.8 °C 29.84in /  1010.4hPa Calm     88.5% 0.00in /  0mm 0 W/m2
00:39 51.1 °F /  10.6 °C 48 °F /  8.9 °C 29.84in /  1010.4hPa Calm     89% 0.00in /  0mm 0 W/m2
00:44 51.1 °F /  10.6 °C 48 °F /  8.9 °C 29.84in /  1010.4hPa Calm     89% 0.00in /  0mm 0 W/m2
00:49 51 °F /  10.6 °C 48.1 °F /  8.9 °C 29.84in /  1010.4hPa Calm     89.6% 0.00in /  0mm 0 W/m2
00:54 51 °F /  10.6 °C 48.2 °F /  9 °C 29.84in /  1010.4hPa Calm     90% 0.00in /  0mm 0 W/m2
00:59 51 °F /  10.6 °C 48.2 °F /  9 °C 29.84in /  1010.4hPa Calm     90% 0.00in /  0mm 0 W/m2
01:04 50.9 °F /  10.5 °C 48.1 °F /  8.9 °C 29.84in /  1010.4hPa Calm     90% 0.00in /  0mm 0 W/m2
01:09 50.8 °F /  10.4 °C 48 °F /  8.9 °C 29.84in /  1010.4hPa Calm     90% 0.00in /  0mm 0 W/m2
01:14 50.8 °F /  10.4 °C 47.9 °F /  8.8 °C 29.84in /  1010.4hPa Calm     90% 0.00in /  0mm 0 W/m2
01:19 50.7 °F /  10.4 °C 47.8 °F /  8.8 °C 29.84in /  1010.4hPa Calm     90% 0.00in /  0mm 0 W/m2
01:24 50.6 °F /  10.3 °C 47.8 °F /  8.8 °C 29.84in /  1010.4hPa Calm     90% 0.00in /  0mm 0 W/m2
01:29 50.5 °F /  10.3 °C 47.7 °F /  8.7 °C 29.84in /  1010.4hPa Calm     90% 0.00in /  0mm 0 W/m2
01:34 50.4 °F /  10.2 °C 47.6 °F /  8.7 °C 29.84in /  1010.4hPa Calm     90% 0.00in /  0mm 0 W/m2
01:39 50.3 °F /  10.2 °C 47.5 °F /  8.6 °C 29.84in /  1010.4hPa Calm     90% 0.00in /  0mm 0 W/m2
01:44 50.2 °F /  10.1 °C 47.4 °F /  8.6 °C 29.84in /  1010.4hPa Calm     90% 0.00in /  0mm 0 W/m2
01:49 50.1 °F /  10.1 °C 47.3 °F /  8.5 °C 29.84in /  1010.4hPa Calm     90% 0.00in /  0mm 0 W/m2
01:54 50 °F /  10 °C 47.5 °F /  8.6 °C 29.84in /  1010.4hPa Calm     90.8% 0.00in /  0mm 0 W/m2
01:59 50 °F /  10 °C 47.5 °F /  8.6 °C 29.84in /  1010.4hPa Calm     91% 0.00in /  0mm 0 W/m2
02:04 49.9 °F /  9.9 °C 47.4 °F /  8.6 °C 29.84in /  1010.4hPa Calm     91% 0.00in /  0mm 0 W/m2
02:09 49.8 °F /  9.9 °C 47.3 °F /  8.5 °C 29.84in /  1010.4hPa Calm     91% 0.00in /  0mm 0 W/m2
02:14 49.7 °F /  9.8 °C 47.2 °F /  8.4 °C 29.84in /  1010.4hPa Calm     91% 0.00in /  0mm 0 W/m2
02:19 49.6 °F /  9.8 °C 47.1 °F /  8.4 °C 29.84in /  1010.4hPa Calm     91% 0.00in /  0mm 0 W/m2
02:24 49.5 °F /  9.7 °C 47 °F /  8.3 °C 29.83in /  1010hPa Calm     91% 0.00in /  0mm 0 W/m2
02:29 49.4 °F /  9.7 °C 46.9 °F /  8.3 °C 29.83in /  1010hPa Calm     91% 0.00in /  0mm 0 W/m2
02:34 49.4 °F /  9.7 °C 46.9 °F /  8.3 °C 29.83in /  1010hPa Calm     91% 0.00in /  0mm 0 W/m2
02:39 49.4 °F /  9.7 °C 47.2 °F /  8.4 °C 29.83in /  1010hPa Calm     91.9% 0.00in /  0mm 0 W/m2
02:44 49.5 °F /  9.7 °C 47.3 °F /  8.5 °C 29.83in /  1010hPa Calm     92% 0.00in /  0mm 0 W/m2
02:49 49.5 °F /  9.7 °C 47.3 °F /  8.5 °C 29.83in /  1010hPa Calm     92% 0.00in /  0mm 0 W/m2
02:54 49.5 °F /  9.7 °C 47.3 °F /  8.5 °C 29.83in /  1010hPa Calm     92% 0.00in /  0mm 0 W/m2
02:59 49.6 °F /  9.8 °C 47.4 °F /  8.6 °C 29.83in /  1010hPa Calm     92% 0.00in /  0mm 0 W/m2
03:04 49.6 °F /  9.8 °C 47.4 °F /  8.6 °C 29.82in /  1009.7hPa Calm     92% 0.00in /  0mm 0 W/m2
03:09 49.6 °F /  9.8 °C 47.4 °F /  8.6 °C 29.82in /  1009.7hPa Calm     92% 0.00in /  0mm 0 W/m2
03:14 49.6 °F /  9.8 °C 47.4 °F /  8.6 °C 29.82in /  1009.7hPa Calm     92% 0.00in /  0mm 0 W/m2
03:19 49.6 °F /  9.8 °C 47.4 °F /  8.6 °C 29.82in /  1009.7hPa Calm     92% 0.00in /  0mm 0 W/m2
03:24 49.7 °F /  9.8 °C 47.5 °F /  8.6 °C 29.82in /  1009.7hPa Calm     92.2% 0.00in /  0mm 0 W/m2
03:29 49.7 °F /  9.8 °C 47.8 °F /  8.8 °C 29.82in /  1009.7hPa Calm     93% 0.00in /  0mm 0 W/m2
03:34 49.8 °F /  9.9 °C 47.9 °F /  8.8 °C 29.81in /  1009.4hPa Calm     93% 0.00in /  0mm 0 W/m2
03:39 49.9 °F /  9.9 °C 48 °F /  8.9 °C 29.81in /  1009.4hPa Calm     93% 0.00in /  0mm 0 W/m2
03:44 49.9 °F /  9.9 °C 48 °F /  8.9 °C 29.81in /  1009.4hPa Calm     93% 0.00in /  0mm 0 W/m2
03:49 50 °F /  10 °C 48.1 °F /  8.9 °C 29.81in /  1009.4hPa Calm     93% 0.00in /  0mm 0 W/m2
03:54 50.1 °F /  10.1 °C 48.2 °F /  9 °C 29.81in /  1009.4hPa Calm     93% 0.00in /  0mm 0 W/m2
03:59 50.1 °F /  10.1 °C 48.2 °F /  9 °C 29.81in /  1009.4hPa Calm     93% 0.00in /  0mm 0 W/m2
04:04 50 °F /  10 °C 48.1 °F /  8.9 °C 29.80in /  1009hPa Calm     93% 0.00in /  0mm 0 W/m2
04:09 50 °F /  10 °C 48 °F /  8.9 °C 29.81in /  1009.4hPa Calm     93% 0.00in /  0mm 0 W/m2
04:14 49.9 °F /  9.9 °C 48 °F /  8.9 °C 29.80in /  1009hPa Calm     93% 0.00in /  0mm 0 W/m2
04:19 49.9 °F /  9.9 °C 48 °F /  8.9 °C 29.80in /  1009hPa Calm     93% 0.00in /  0mm 0 W/m2
04:24 50 °F /  10 °C 48 °F /  8.9 °C 29.80in /  1009hPa Calm     93% 0.00in /  0mm 0 W/m2
04:29 50 °F /  10 °C 48.1 °F /  8.9 °C 29.80in /  1009hPa Calm     93% 0.00in /  0mm 0 W/m2
04:34 50 °F /  10 °C 48 °F /  8.9 °C 29.80in /  1009hPa Calm     93% 0.00in /  0mm 0 W/m2
04:39 49.9 °F /  9.9 °C 48 °F /  8.9 °C 29.80in /  1009hPa Calm     93% 0.00in /  0mm 0 W/m2
04:44 49.8 °F /  9.9 °C 47.9 °F /  8.8 °C 29.80in /  1009hPa Calm     93% 0.00in /  0mm 0 W/m2
04:49 49.7 °F /  9.8 °C 47.8 °F /  8.8 °C 29.80in /  1009hPa Calm     93% 0.00in /  0mm 0 W/m2
04:54 49.6 °F /  9.8 °C 47.7 °F /  8.7 °C 29.81in /  1009.4hPa Calm     93% 0.00in /  0mm 0 W/m2
04:59 49.5 °F /  9.7 °C 47.6 °F /  8.7 °C 29.81in /  1009.4hPa Calm     93% 0.00in /  0mm 0 W/m2
05:04 49.4 °F /  9.7 °C 47.5 °F /  8.6 °C 29.81in /  1009.4hPa Calm     93% 0.00in /  0mm 0 W/m2
05:09 49.3 °F /  9.6 °C 47.4 °F /  8.6 °C 29.80in /  1009hPa Calm     93% 0.00in /  0mm 0 W/m2
05:14 49.2 °F /  9.6 °C 47.3 °F /  8.5 °C 29.80in /  1009hPa Calm     93% 0.00in /  0mm 0 W/m2
05:19 49.2 °F /  9.6 °C 47.3 °F /  8.5 °C 29.80in /  1009hPa Calm     93% 0.00in /  0mm 0 W/m2
05:24 49.2 °F /  9.6 °C 47.3 °F /  8.5 °C 29.80in /  1009hPa Calm     93% 0.00in /  0mm 0 W/m2
05:29 49.1 °F /  9.5 °C 47.2 °F /  8.4 °C 29.80in /  1009hPa Calm     93% 0.00in /  0mm 0 W/m2
05:34 49 °F /  9.4 °C 47.1 °F /  8.4 °C 29.80in /  1009hPa Calm     93% 0.00in /  0mm 0 W/m2
05:39 48.8 °F /  9.3 °C 46.9 °F /  8.3 °C 29.80in /  1009hPa Calm     93% 0.00in /  0mm 0 W/m2
05:44 48.7 °F /  9.3 °C 46.8 °F /  8.2 °C 29.80in /  1009hPa Calm     93% 0.00in /  0mm 0 W/m2
05:49 48.6 °F /  9.2 °C 46.7 °F /  8.2 °C 29.80in /  1009hPa Calm     93% 0.00in /  0mm 0 W/m2
05:54 48.5 °F /  9.2 °C 46.6 °F /  8.1 °C 29.80in /  1009hPa Calm     93% 0.00in /  0mm 0 W/m2
05:59 48.5 °F /  9.2 °C 46.6 °F /  8.1 °C 29.80in /  1009hPa Calm     93% 0.00in /  0mm 0 W/m2
06:04 48.6 °F /  9.2 °C 46.6 °F /  8.1 °C 29.80in /  1009hPa Calm     93% 0.00in /  0mm 0 W/m2
06:09 48.6 °F /  9.2 °C 46.7 °F /  8.2 °C 29.80in /  1009hPa Calm     93% 0.00in /  0mm 0 W/m2
06:14 48.6 °F /  9.2 °C 46.7 °F /  8.2 °C 29.80in /  1009hPa Calm     93% 0.00in /  0mm 0 W/m2
06:19 48.5 °F /  9.2 °C 46.6 °F /  8.1 °C 29.80in /  1009hPa Calm     93% 0.00in /  0mm 0 W/m2
06:24 48.5 °F /  9.2 °C 46.6 °F /  8.1 °C 29.80in /  1009hPa Calm     93.1% 0.00in /  0mm 0 W/m2
06:29 48.5 °F /  9.2 °C 46.9 °F /  8.3 °C 29.80in /  1009hPa Calm     94% 0.00in /  0mm 0 W/m2
06:34 48.6 °F /  9.2 °C 47 °F /  8.3 °C 29.79in /  1008.7hPa Calm     94% 0.00in /  0mm 0 W/m2
06:39 48.7 °F /  9.3 °C 47.1 °F /  8.4 °C 29.79in /  1008.7hPa Calm     94% 0.00in /  0mm 0 W/m2
06:44 49 °F /  9.4 °C 47.3 °F /  8.5 °C 29.79in /  1008.7hPa Calm     94% 0.00in /  0mm 0 W/m2
06:49 49.1 °F /  9.5 °C 47.5 °F /  8.6 °C 29.79in /  1008.7hPa Calm     94% 0.00in /  0mm 7 W/m2
06:54 49.3 °F /  9.6 °C 47.6 °F /  8.7 °C 29.79in /  1008.7hPa Calm     94% 0.00in /  0mm 11 W/m2
06:59 49.4 °F /  9.7 °C 47.8 °F /  8.8 °C 29.79in /  1008.7hPa Calm     94.2% 0.00in /  0mm 11 W/m2
07:04 49.5 °F /  9.7 °C 47.9 °F /  8.8 °C 29.79in /  1008.7hPa Calm     94% 0.00in /  0mm 11 W/m2
07:09 49.7 °F /  9.8 °C 48 °F /  8.9 °C 29.79in /  1008.7hPa Calm     94% 0.00in /  0mm 16 W/m2
07:14 49.8 °F /  9.9 °C 48.2 °F /  9 °C 29.79in /  1008.7hPa Calm     94% 0.00in /  0mm 19 W/m2
07:19 50 °F /  10 °C 48.6 °F /  9.2 °C 29.79in /  1008.7hPa Calm     94.9% 0.00in /  0mm 19 W/m2
07:24 50.2 °F /  10.1 °C 48.8 °F /  9.3 °C 29.78in /  1008.4hPa Calm     95% 0.00in /  0mm 23 W/m2
07:29 50.3 °F /  10.2 °C 48.8 °F /  9.3 °C 29.78in /  1008.4hPa Calm     94.5% 0.00in /  0mm 37 W/m2
07:34 50.4 °F /  10.2 °C 48.7 °F /  9.3 °C 29.78in /  1008.4hPa Calm     94% 0.00in /  0mm 47 W/m2
07:39 50.4 °F /  10.2 °C 48.7 °F /  9.3 °C 29.78in /  1008.4hPa Calm     94% 0.00in /  0mm 47 W/m2
07:44 50.4 °F /  10.2 °C 48.8 °F /  9.3 °C 29.78in /  1008.4hPa Calm     94% 0.00in /  0mm 47 W/m2
07:49 50.5 °F /  10.3 °C 48.8 °F /  9.3 °C 29.78in /  1008.4hPa Calm     94% 0.00in /  0mm 60 W/m2
07:54 50.6 °F /  10.3 °C 49 °F /  9.4 °C 29.78in /  1008.4hPa Calm     94% 0.00in /  0mm 67 W/m2
07:59 50.9 °F /  10.5 °C 49.2 °F /  9.6 °C 29.78in /  1008.4hPa Calm     94% 0.00in /  0mm 93 W/m2
08:00 51 °F /  10.6 °C 49.3 °F /  9.6 °C 29.77in /  1008hPa Calm     94% 0.00in /  0mm 93 W/m2
08:09 51.3 °F /  10.7 °C 49.7 °F /  9.8 °C 29.78in /  1008.4hPa Calm     94% 0.00in /  0mm 128 W/m2
08:14 51.7 °F /  10.9 °C 50 °F /  10 °C 29.78in /  1008.4hPa Calm     94.1% 0.00in /  0mm 135 W/m2
08:19 52.1 °F /  11.2 °C 50.8 °F /  10.4 °C 29.78in /  1008.4hPa Calm     95% 0.00in /  0mm 118 W/m2
08:24 52.6 °F /  11.4 °C 51.2 °F /  10.7 °C 29.77in /  1008hPa Calm     95% 0.00in /  0mm 88 W/m2
08:29 52.9 °F /  11.6 °C 51.3 °F /  10.7 °C 29.77in /  1008hPa Calm     94.2% 0.00in /  0mm 137 W/m2
08:34 53.2 °F /  11.8 °C 51.5 °F /  10.8 °C 29.77in /  1008hPa Calm     94% 0.00in /  0mm 130 W/m2
08:39 53.5 °F /  11.9 °C 51.8 °F /  11 °C 29.77in /  1008hPa Calm     94% 0.00in /  0mm 125 W/m2
08:44 53.8 °F /  12.1 °C 51.9 °F /  11.1 °C 29.77in /  1008hPa Calm     93.4% 0.00in /  0mm 148 W/m2
08:49 54.1 °F /  12.3 °C 52.1 °F /  11.2 °C 29.77in /  1008hPa Calm     93% 0.00in /  0mm 183 W/m2
08:54 54.5 °F /  12.5 °C 52.5 °F /  11.4 °C 29.77in /  1008hPa Calm     92.9% 0.00in /  0mm 211 W/m2
08:59 54.8 °F /  12.7 °C 52.5 °F /  11.4 °C 29.76in /  1007.7hPa Calm     92% 0.00in /  0mm 227 W/m2
09:04 55.2 °F /  12.9 °C 52.6 °F /  11.4 °C 29.76in /  1007.7hPa Calm     91.2% 0.00in /  0mm 329 W/m2
09:09 55.7 °F /  13.2 °C 53.1 °F /  11.7 °C 29.76in /  1007.7hPa Calm     90.9% 0.00in /  0mm 329 W/m2
09:14 56 °F /  13.3 °C 53 °F /  11.7 °C 29.76in /  1007.7hPa Calm     89.4% 0.00in /  0mm 156 W/m2
09:19 56.4 °F /  13.6 °C 53.2 °F /  11.8 °C 29.76in /  1007.7hPa Calm     89% 0.00in /  0mm 130 W/m2
09:24 56.8 °F /  13.8 °C 53.4 °F /  11.9 °C 29.76in /  1007.7hPa Calm     88.3% 0.00in /  0mm 130 W/m2
09:29 57 °F /  13.9 °C 53.2 °F /  11.8 °C 29.76in /  1007.7hPa Calm     87% 0.00in /  0mm 148 W/m2
09:34 57.2 °F /  14 °C 53.1 °F /  11.7 °C 29.76in /  1007.7hPa Calm     86.1% 0.00in /  0mm 199 W/m2
09:39 57.5 °F /  14.2 °C 53.1 °F /  11.7 °C 29.76in /  1007.7hPa Calm     85.3% 0.00in /  0mm 223 W/m2
09:44 57.8 °F /  14.3 °C 53.3 °F /  11.8 °C 29.76in /  1007.7hPa Calm     85% 0.00in /  0mm 251 W/m2
09:49 58.2 °F /  14.6 °C 53.8 °F /  12.1 °C 29.76in /  1007.7hPa Calm     85% 0.00in /  0mm 274 W/m2
09:54 58.7 °F /  14.8 °C 54.2 °F /  12.3 °C 29.76in /  1007.7hPa Calm     84.8% 0.00in /  0mm 452 W/m2
09:59 59.4 °F /  15.2 °C 54.9 °F /  12.7 °C 29.76in /  1007.7hPa Calm     85% 0.00in /  0mm 624 W/m2
10:04 60.2 °F /  15.7 °C 54.9 °F /  12.7 °C 29.76in /  1007.7hPa Calm     82.7% 0.00in /  0mm 367 W/m2
10:09 60.9 °F /  16.1 °C 55 °F /  12.8 °C 29.75in /  1007.3hPa Calm     81.1% 0.00in /  0mm 396 W/m2
10:14 61.4 °F /  16.3 °C 54.8 °F /  12.7 °C 29.75in /  1007.3hPa Calm     78.9% 0.00in /  0mm 304 W/m2
10:19 61.9 °F /  16.6 °C 55.4 °F /  13 °C 29.75in /  1007.3hPa Calm     79% 0.00in /  0mm 353 W/m2
10:24 62.5 °F /  16.9 °C 55.6 °F /  13.1 °C 29.75in /  1007.3hPa Calm     78.1% 0.00in /  0mm 253 W/m2
10:29 63 °F /  17.2 °C 55.7 °F /  13.2 °C 29.75in /  1007.3hPa Calm     76.9% 0.00in /  0mm 287 W/m2
10:34 63.4 °F /  17.4 °C 55.8 °F /  13.2 °C 29.75in /  1007.3hPa Calm     76.3% 0.00in /  0mm 360 W/m2
10:39 63.9 °F /  17.7 °C 56.3 °F /  13.5 °C 29.75in /  1007.3hPa Calm     76.1% 0.00in /  0mm 670 W/m2
10:44 64.7 °F /  18.2 °C 56.7 °F /  13.7 °C 29.75in /  1007.3hPa Calm     75.4% 0.00in /  0mm 378 W/m2
10:49 65.1 °F /  18.4 °C 56.8 °F /  13.8 °C 29.75in /  1007.3hPa Calm     74.4% 0.00in /  0mm 269 W/m2
10:54 65.2 °F /  18.4 °C 56.3 °F /  13.5 °C 29.74in /  1007hPa Calm     73% 0.00in /  0mm 357 W/m2
10:59 65.1 °F /  18.4 °C 56 °F /  13.3 °C 29.74in /  1007hPa Calm     72.4% 0.00in /  0mm 355 W/m2
11:04 65 °F /  18.3 °C 55.9 °F /  13.3 °C 29.73in /  1006.7hPa Calm     72.4% 0.00in /  0mm 357 W/m2
11:09 64.9 °F /  18.3 °C 56.1 °F /  13.4 °C 29.73in /  1006.7hPa Calm     73.2% 0.00in /  0mm 339 W/m2
11:14 65.1 °F /  18.4 °C 56.4 °F /  13.6 °C 29.73in /  1006.7hPa Calm     73.6% 0.00in /  0mm 443 W/m2
11:19 65.3 °F /  18.5 °C 56.7 °F /  13.7 °C 29.73in /  1006.7hPa Calm     73.7% 0.00in /  0mm 357 W/m2
11:24 65.6 °F /  18.7 °C 57.2 °F /  14 °C 29.72in /  1006.3hPa Calm     74.3% 0.00in /  0mm 362 W/m2
11:29 66 °F /  18.9 °C 57.7 °F /  14.3 °C 29.72in /  1006.3hPa Calm     74.7% 0.00in /  0mm 378 W/m2
11:34 66.3 °F /  19.1 °C 57.5 °F /  14.2 °C 29.72in /  1006.3hPa Calm     73.4% 0.00in /  0mm 339 W/m2
11:39 66.4 °F /  19.1 °C 57 °F /  13.9 °C 29.72in /  1006.3hPa Calm     71.8% 0.00in /  0mm 338 W/m2
11:44 66.4 °F /  19.1 °C 56.7 °F /  13.7 °C 29.72in /  1006.3hPa Calm     71% 0.00in /  0mm 302 W/m2
11:49 66.5 °F /  19.2 °C 57.2 °F /  14 °C 29.72in /  1006.3hPa Calm     72% 0.00in /  0mm 287 W/m2
11:54 66.5 °F /  19.2 °C 57 °F /  13.9 °C 29.71in /  1006hPa WSW 0.4mph /  0.6km/h 3mph /  4.8km/h 71.5% 0.00in /  0mm 253 W/m2
11:59 66.4 °F /  19.1 °C 57.1 °F /  13.9 °C 29.71in /  1006hPa WSW 0.3mph /  0.5km/h 3mph /  4.8km/h 72% 0.00in /  0mm 253 W/m2
12:00 66.4 °F /  19.1 °C 57.1 °F /  13.9 °C 29.71in /  1006hPa Calm   3mph /  4.8km/h 72% 0.00in /  0mm 251 W/m2
12:09 66.3 °F /  19.1 °C 57.1 °F /  13.9 °C 29.71in /  1006hPa WSW 0.6mph /  1km/h 4mph /  6.4km/h 72.1% 0.00in /  0mm 272 W/m2
12:14 66.4 °F /  19.1 °C 57 °F /  13.9 °C 29.71in /  1006hPa SSW 0.3mph /  0.5km/h 4mph /  6.4km/h 71.8% 0.00in /  0mm 274 W/m2
12:19 66.5 °F /  19.2 °C 57.1 °F /  13.9 °C 29.71in /  1006hPa WSW 0.2mph /  0.3km/h 4mph /  6.4km/h 71.9% 0.00in /  0mm 272 W/m2
12:24 66.5 °F /  19.2 °C 57.3 °F /  14.1 °C 29.71in /  1006hPa West 0.1mph /  0.2km/h 4mph /  6.4km/h 72% 0.00in /  0mm 306 W/m2
12:29 66.7 °F /  19.3 °C 57.5 °F /  14.2 °C 29.71in /  1006hPa SW 0.4mph /  0.6km/h 4mph /  6.4km/h 72.3% 0.00in /  0mm 323 W/m2
12:34 66.9 °F /  19.4 °C 57.3 °F /  14.1 °C 29.70in /  1005.6hPa Calm   4mph /  6.4km/h 71.3% 0.00in /  0mm 285 W/m2
12:39 67.1 °F /  19.5 °C 57.7 °F /  14.3 °C 29.70in /  1005.6hPa Calm   1mph /  1.6km/h 71.7% 0.00in /  0mm 253 W/m2
12:44 67.3 °F /  19.6 °C 57.6 °F /  14.2 °C 29.70in /  1005.6hPa Calm   1mph /  1.6km/h 71% 0.00in /  0mm 243 W/m2
12:49 67.4 °F /  19.7 °C 57.7 °F /  14.3 °C 29.69in /  1005.3hPa Calm   1mph /  1.6km/h 71% 0.00in /  0mm 229 W/m2
12:54 67.6 °F /  19.8 °C 57.8 °F /  14.3 °C 29.69in /  1005.3hPa SSW 0.2mph /  0.3km/h 3mph /  4.8km/h 71% 0.00in /  0mm 232 W/m2
12:59 67.7 °F /  19.8 °C 58.3 °F /  14.6 °C 29.69in /  1005.3hPa West 0.4mph /  0.6km/h 5mph /  8km/h 71.8% 0.00in /  0mm 230 W/m2
13:04 67.8 °F /  19.9 °C 58.4 °F /  14.7 °C 29.68in /  1005hPa SW 0.1mph /  0.2km/h 5mph /  8km/h 71.9% 0.00in /  0mm 229 W/m2
13:09 67.9 °F /  19.9 °C 58.2 °F /  14.6 °C 29.68in /  1005hPa SW 0.1mph /  0.2km/h 2mph /  3.2km/h 71% 0.00in /  0mm 216 W/m2
13:14 68 °F /  20 °C 58.3 °F /  14.6 °C 29.68in /  1005hPa SW 0.1mph /  0.2km/h 2mph /  3.2km/h 71% 0.00in /  0mm 234 W/m2
13:19 68 °F /  20 °C 58.7 °F /  14.8 °C 29.67in /  1004.6hPa Calm   2mph /  3.2km/h 71.9% 0.00in /  0mm 287 W/m2
13:24 68.1 °F /  20.1 °C 58.9 °F /  14.9 °C 29.67in /  1004.6hPa South 0.4mph /  0.6km/h 2mph /  3.2km/h 72.2% 0.00in /  0mm 288 W/m2
13:29 68.3 °F /  20.2 °C 59 °F /  15 °C 29.67in /  1004.6hPa SSW 0.2mph /  0.3km/h 4mph /  6.4km/h 72% 0.00in /  0mm 248 W/m2
13:34 68.5 °F /  20.3 °C 59.1 °F /  15.1 °C 29.66in /  1004.3hPa SSW 0.4mph /  0.6km/h 4mph /  6.4km/h 72% 0.00in /  0mm 251 W/m2
13:39 68.6 °F /  20.3 °C 59.3 °F /  15.2 °C 29.66in /  1004.3hPa SSW 0.7mph /  1.1km/h 3mph /  4.8km/h 72% 0.00in /  0mm 267 W/m2
13:44 68.7 °F /  20.4 °C 59.4 °F /  15.2 °C 29.66in /  1004.3hPa SSW 0.2mph /  0.3km/h 4mph /  6.4km/h 72% 0.00in /  0mm 267 W/m2
13:49 68.8 °F /  20.4 °C 59.4 °F /  15.2 °C 29.66in /  1004.3hPa SSW 0.4mph /  0.6km/h 4mph /  6.4km/h 72% 0.00in /  0mm 227 W/m2
13:54 68.8 °F /  20.4 °C 59.4 °F /  15.2 °C 29.65in /  1003.9hPa SSW 0.4mph /  0.6km/h 4mph /  6.4km/h 72% 0.00in /  0mm 214 W/m2
13:59 68.8 °F /  20.4 °C 59.7 °F /  15.4 °C 29.65in /  1003.9hPa Calm   4mph /  6.4km/h 72.8% 0.00in /  0mm 174 W/m2
14:04 68.8 °F /  20.4 °C 60.1 °F /  15.6 °C 29.65in /  1003.9hPa SSW 0.1mph /  0.2km/h 4mph /  6.4km/h 73.8% 0.00in /  0mm 151 W/m2
14:09 68.8 °F /  20.4 °C 59.8 °F /  15.4 °C 29.65in /  1003.9hPa Calm   2mph /  3.2km/h 73% 0.00in /  0mm 165 W/m2
14:14 68.7 °F /  20.4 °C 60 °F /  15.6 °C 29.65in /  1003.9hPa Calm   2mph /  3.2km/h 73.7% 0.00in /  0mm 162 W/m2
14:19 68.7 °F /  20.4 °C 60.3 °F /  15.7 °C 29.65in /  1003.9hPa SSW 0.1mph /  0.2km/h 2mph /  3.2km/h 74.4% 0.00in /  0mm 128 W/m2
14:24 68.8 °F /  20.4 °C 60.5 °F /  15.8 °C 29.64in /  1003.6hPa SSW 0.1mph /  0.2km/h 2mph /  3.2km/h 75% 0.00in /  0mm 165 W/m2
14:29 68.8 °F /  20.4 °C 60.9 °F /  16.1 °C 29.64in /  1003.6hPa SSW 0.3mph /  0.5km/h 2mph /  3.2km/h 75.9% 0.00in /  0mm 163 W/m2
14:34 68.9 °F /  20.5 °C 61.1 °F /  16.2 °C 29.64in /  1003.6hPa SSW 0.3mph /  0.5km/h 3mph /  4.8km/h 76.3% 0.00in /  0mm 153 W/m2
14:39 69 °F /  20.6 °C 61.6 °F /  16.4 °C 29.64in /  1003.6hPa Calm   3mph /  4.8km/h 77.2% 0.00in /  0mm 213 W/m2
14:44 69.2 °F /  20.7 °C 62 °F /  16.7 °C 29.63in /  1003.3hPa SW 0.1mph /  0.2km/h 3mph /  4.8km/h 78% 0.00in /  0mm 213 W/m2
14:49 69.3 °F /  20.7 °C 62.1 °F /  16.7 °C 29.63in /  1003.3hPa SW 0.2mph /  0.3km/h 3mph /  4.8km/h 77.9% 0.00in /  0mm 192 W/m2
14:54 69.3 °F /  20.7 °C 62 °F /  16.7 °C 29.63in /  1003.3hPa SSW 0.1mph /  0.2km/h 3mph /  4.8km/h 77.5% 0.00in /  0mm 185 W/m2
14:59 69.4 °F /  20.8 °C 62.1 °F /  16.7 °C 29.63in /  1003.3hPa South 0.4mph /  0.6km/h 3mph /  4.8km/h 77.6% 0.00in /  0mm 211 W/m2
15:04 69.4 °F /  20.8 °C 61.9 °F /  16.6 °C 29.62in /  1002.9hPa SSE 0.5mph /  0.8km/h 4mph /  6.4km/h 77% 0.00in /  0mm 292 W/m2
15:09 69.6 °F /  20.9 °C 62.1 °F /  16.7 °C 29.62in /  1002.9hPa South 0.2mph /  0.3km/h 4mph /  6.4km/h 77% 0.00in /  0mm 276 W/m2
15:14 69.9 °F /  21.1 °C 62.1 °F /  16.7 °C 29.61in /  1002.6hPa South 0.1mph /  0.2km/h 4mph /  6.4km/h 76.3% 0.00in /  0mm 178 W/m2
15:19 70 °F /  21.1 °C 62.1 °F /  16.7 °C 29.61in /  1002.6hPa South 0.2mph /  0.3km/h 4mph /  6.4km/h 76% 0.00in /  0mm 190 W/m2
15:24 70.1 °F /  21.2 °C 62.2 °F /  16.8 °C 29.61in /  1002.6hPa Calm   4mph /  6.4km/h 76% 0.00in /  0mm 216 W/m2
15:29 70.1 °F /  21.2 °C 62.2 °F /  16.8 °C 29.61in /  1002.6hPa South 0.1mph /  0.2km/h 4mph /  6.4km/h 76% 0.00in /  0mm 265 W/m2
15:34 70.2 °F /  21.2 °C 62.3 °F /  16.8 °C 29.61in /  1002.6hPa Calm   4mph /  6.4km/h 76% 0.00in /  0mm 148 W/m2
15:39 70.2 °F /  21.2 °C 62.1 °F /  16.7 °C 29.61in /  1002.6hPa SSE 0.2mph /  0.3km/h 3mph /  4.8km/h 75.6% 0.00in /  0mm 135 W/m2
15:44 70.2 °F /  21.2 °C 61.9 °F /  16.6 °C 29.60in /  1002.3hPa SSE 0.3mph /  0.5km/h 3mph /  4.8km/h 75% 0.00in /  0mm 193 W/m2
15:49 70.2 °F /  21.2 °C 61.9 °F /  16.6 °C 29.60in /  1002.3hPa SSE 0.1mph /  0.2km/h 3mph /  4.8km/h 75% 0.00in /  0mm 200 W/m2
15:54 70.2 °F /  21.2 °C 61.7 °F /  16.5 °C 29.61in /  1002.6hPa South 0.4mph /  0.6km/h 4mph /  6.4km/h 74.4% 0.00in /  0mm 123 W/m2
15:59 70.2 °F /  21.2 °C 61.2 °F /  16.2 °C 29.61in /  1002.6hPa South 0.5mph /  0.8km/h 4mph /  6.4km/h 73% 0.00in /  0mm 223 W/m2
16:09 70.3 °F /  21.3 °C 60.8 °F /  16 °C 29.60in /  1002.3hPa SSW 0.9mph /  1.4km/h 5mph /  8km/h 72% 0.00in /  0mm 139 W/m2
16:14 70.3 °F /  21.3 °C 60.9 °F /  16.1 °C 29.59in /  1001.9hPa South 0.7mph /  1.1km/h 5mph /  8km/h 72% 0.00in /  0mm 183 W/m2
16:19 70.4 °F /  21.3 °C 61.2 °F /  16.2 °C 29.59in /  1001.9hPa South 0.1mph /  0.2km/h 5mph /  8km/h 72.4% 0.00in /  0mm 134 W/m2
16:24 70.5 °F /  21.4 °C 61.4 °F /  16.3 °C 29.59in /  1001.9hPa South 0.6mph /  1km/h 5mph /  8km/h 73% 0.00in /  0mm 125 W/m2
16:29 70.5 °F /  21.4 °C 61.4 °F /  16.3 °C 29.59in /  1001.9hPa South 0.2mph /  0.3km/h 5mph /  8km/h 73% 0.00in /  0mm 137 W/m2
16:34 70.4 °F /  21.3 °C 61.4 °F /  16.3 °C 29.59in /  1001.9hPa South 0.2mph /  0.3km/h 5mph /  8km/h 73% 0.00in /  0mm 128 W/m2
16:39 70.4 °F /  21.3 °C 61.6 °F /  16.4 °C 29.58in /  1001.6hPa SSW 0.5mph /  0.8km/h 4mph /  6.4km/h 73.6% 0.00in /  0mm 128 W/m2
16:44 70.4 °F /  21.3 °C 61.7 °F /  16.5 °C 29.58in /  1001.6hPa SSW 1.5mph /  2.4km/h 6mph /  9.7km/h 74% 0.00in /  0mm 111 W/m2
16:49 70.3 °F /  21.3 °C 61.6 °F /  16.4 °C 29.58in /  1001.6hPa South 0.6mph /  1km/h 6mph /  9.7km/h 74% 0.00in /  0mm 83 W/m2
16:54 70.2 °F /  21.2 °C 61.8 °F /  16.6 °C 29.59in /  1001.9hPa SSW 0.5mph /  0.8km/h 11mph /  17.7km/h 74.7% 0.00in /  0mm 81 W/m2
16:58 70.1 °F /  21.2 °C 61.8 °F /  16.6 °C 29.59in /  1001.9hPa Calm   11mph /  17.7km/h 75% 0.00in /  0mm 90 W/m2
Hartford County Weather
Compliments of Weather Underground - 4 mb